DAL247 BIKF-KJFK
Flight info
| Callsign | DAL247 |
|---|---|
| Flight time | N/A |
| Altitude | 38000 |
| Route | DELES2A DELES DCT DOPOD DCT 61N030W 5630N04000W 54N050W DCT NEEKO/N0478F380 N616B TOPPS DCT ENE PARCH4 |
| Aircraft | A339/H-SADE1E2E3GHIJ3J5M1P2RWXY/LB2D1 |
Departure
| Time | 2026-05-04 00:47 |
|---|---|
| Airport | Keflavik International Airport (BIKF) |
Arrival
| Time | N/A |
|---|---|
| Airport | John F. Kennedy International Airport (KJFK) |
| Time | Latitude | Longitude | Altitude | Speed | Heading |
|---|---|---|---|---|---|
| 2026-05-04 00:18 | 63.99327 | -22.62150 | 153 ft | 0 kts | 269° |
| 2026-05-04 00:32 | 63.99327 | -22.62130 | 153 ft | 2 kts | 269° |
| 2026-05-04 00:32 | 63.99327 | -22.62096 | 153 ft | 2 kts | 269° |
| 2026-05-04 00:32 | 63.99328 | -22.62062 | 153 ft | 2 kts | 252° |
| 2026-05-04 00:33 | 63.99335 | -22.62032 | 153 ft | 2 kts | 228° |
| 2026-05-04 00:33 | 63.99361 | -22.61999 | 153 ft | 2 kts | 185° |
| 2026-05-04 00:33 | 63.99376 | -22.61999 | 153 ft | 2 kts | 176° |
| 2026-05-04 00:34 | 63.99390 | -22.62000 | 153 ft | 2 kts | 180° |
| 2026-05-04 00:34 | 63.99405 | -22.62000 | 153 ft | 2 kts | 180° |
| 2026-05-04 00:34 | 63.99409 | -22.62000 | 153 ft | 0 kts | 180° |
| 2026-05-04 00:37 | 63.99408 | -22.62000 | 153 ft | 0 kts | 180° |
| 2026-05-04 00:37 | 63.99397 | -22.62000 | 153 ft | 2 kts | 179° |
| 2026-05-04 00:37 | 63.99370 | -22.62000 | 153 ft | 5 kts | 179° |
| 2026-05-04 00:37 | 63.99325 | -22.61999 | 153 ft | 7 kts | 178° |
| 2026-05-04 00:38 | 63.99264 | -22.61997 | 153 ft | 9 kts | 179° |
| 2026-05-04 00:38 | 63.99205 | -22.61997 | 153 ft | 5 kts | 179° |
| 2026-05-04 00:38 | 63.99180 | -22.61960 | 153 ft | 5 kts | 115° |
| 2026-05-04 00:38 | 63.99172 | -22.61853 | 153 ft | 8 kts | 90° |
| 2026-05-04 00:39 | 63.99173 | -22.61693 | 153 ft | 11 kts | 89° |
| 2026-05-04 00:39 | 63.99173 | -22.61495 | 153 ft | 13 kts | 90° |
| 2026-05-04 00:39 | 63.99173 | -22.61264 | 154 ft | 14 kts | 89° |
| 2026-05-04 00:39 | 63.99173 | -22.61043 | 156 ft | 10 kts | 90° |
| 2026-05-04 00:40 | 63.99160 | -22.60974 | 156 ft | 4 kts | 155° |
| 2026-05-04 00:40 | 63.99121 | -22.60951 | 156 ft | 7 kts | 173° |
| 2026-05-04 00:40 | 63.99054 | -22.60946 | 156 ft | 11 kts | 178° |
| 2026-05-04 00:40 | 63.98965 | -22.60946 | 157 ft | 13 kts | 180° |
| 2026-05-04 00:41 | 63.98863 | -22.60947 | 159 ft | 15 kts | 179° |
| 2026-05-04 00:41 | 63.98754 | -22.60945 | 161 ft | 16 kts | 179° |
| 2026-05-04 00:41 | 63.98631 | -22.60946 | 161 ft | 18 kts | 179° |
| 2026-05-04 00:41 | 63.98494 | -22.60946 | 161 ft | 20 kts | 179° |
| 2026-05-04 00:42 | 63.98347 | -22.60944 | 163 ft | 21 kts | 180° |
| 2026-05-04 00:42 | 63.98198 | -22.60946 | 164 ft | 22 kts | 180° |
| 2026-05-04 00:42 | 63.98040 | -22.60947 | 164 ft | 23 kts | 179° |
| 2026-05-04 00:42 | 63.97871 | -22.60947 | 162 ft | 25 kts | 179° |
| 2026-05-04 00:43 | 63.97695 | -22.60948 | 161 ft | 25 kts | 180° |
| 2026-05-04 00:43 | 63.97519 | -22.60948 | 158 ft | 25 kts | 179° |
| 2026-05-04 00:43 | 63.97339 | -22.60949 | 154 ft | 25 kts | 179° |
| 2026-05-04 00:43 | 63.97159 | -22.60949 | 150 ft | 26 kts | 180° |
| 2026-05-04 00:44 | 63.96974 | -22.60949 | 145 ft | 27 kts | 180° |
| 2026-05-04 00:44 | 63.96782 | -22.60950 | 138 ft | 28 kts | 180° |
| 2026-05-04 00:44 | 63.96599 | -22.60950 | 131 ft | 24 kts | 180° |
| 2026-05-04 00:44 | 63.96495 | -22.60943 | 127 ft | 6 kts | 162° |
| 2026-05-04 00:45 | 63.96467 | -22.60881 | 127 ft | 6 kts | 111° |
| 2026-05-04 00:45 | 63.96461 | -22.60778 | 127 ft | 7 kts | 90° |
| 2026-05-04 00:45 | 63.96462 | -22.60630 | 128 ft | 8 kts | 88° |
| 2026-05-04 00:45 | 63.96469 | -22.60578 | 130 ft | 2 kts | 46° |
| 2026-05-04 00:46 | 63.96483 | -22.60560 | 131 ft | 2 kts | 19° |
| 2026-05-04 00:46 | 63.96500 | -22.60553 | 131 ft | 3 kts | 6° |
| 2026-05-04 00:46 | 63.96542 | -22.60551 | 133 ft | 11 kts | 0° |
| 2026-05-04 00:46 | 63.96753 | -22.60550 | 139 ft | 57 kts | 359° |
| 2026-05-04 00:47 | 63.97334 | -22.60549 | 159 ft | 110 kts | 359° |
| 2026-05-04 00:47 | 63.98261 | -22.60553 | 171 ft | 155 kts | 360° |
| 2026-05-04 00:47 | 63.99397 | -22.60571 | 513 ft | 167 kts | 359° |
| 2026-05-04 00:47 | 64.00542 | -22.60539 | 1105 ft | 167 kts | 0° |
| 2026-05-04 00:48 | 64.01710 | -22.60518 | 1698 ft | 169 kts | 358° |
| 2026-05-04 00:48 | 64.02884 | -22.60479 | 2143 ft | 176 kts | 359° |
| 2026-05-04 00:48 | 64.04160 | -22.60603 | 2376 ft | 193 kts | 344° |
| 2026-05-04 00:48 | 64.05376 | -22.62060 | 2702 ft | 207 kts | 318° |
| 2026-05-04 00:49 | 64.06216 | -22.64866 | 3031 ft | 227 kts | 290° |
| 2026-05-04 00:49 | 64.06383 | -22.68586 | 3373 ft | 247 kts | 272° |